Time;durP1;ratioP1;P1;durP2;ratioP2;P2;SDS_P1;SDS_P2;PMS_P1;PMS_P2;Temp;Humidity;BMP_temperature;BMP_pressure;BME280_temperature;BME280_humidity;BME280_pressure;Samples;Min_cycle;Max_cycle;Signal;HPM_P1;HPM_P2
2022/07/10 00:01:56;;;;;;;;;;;14.60;99.90;;;;;;5000298;28;20417;-70
2022/07/10 00:04:21;;;;;;;;;;;14.50;99.90;;;;;;4993955;28;19906;-71
2022/07/10 00:06:47;;;;;;;;;;;14.50;99.90;;;;;;4994840;28;19906;-70
2022/07/10 00:09:13;;;;;;;;;;;14.50;99.90;;;;;;4994594;28;19906;-70
2022/07/10 00:11:39;;;;;;;;;;;14.50;99.90;;;;;;4994189;28;19912;-70
2022/07/10 00:14:04;;;;;;;;;;;14.50;99.90;;;;;;4994989;28;20271;-70
2022/07/10 00:16:30;;;;;;;;;;;14.50;99.90;;;;;;4993452;28;19925;-70
2022/07/10 00:18:56;;;;;;;;;;;14.50;99.90;;;;;;4995252;28;19905;-70
2022/07/10 00:21:21;;;;;;;;;;;14.50;99.90;;;;;;4994510;28;19910;-70
2022/07/10 00:23:47;;;;;;;;;;;14.50;99.90;;;;;;4973550;28;20308;-70
2022/07/10 00:26:12;;;;;;;;;;;14.40;99.90;;;;;;4973036;28;19906;-70
2022/07/10 00:28:38;;;;;;;;;;;14.50;99.90;;;;;;4973006;28;19961;-71
2022/07/10 00:31:03;;;;;;;;;;;14.40;99.90;;;;;;4976722;28;19910;-71
2022/07/10 00:33:31;;;;;;;;;;;14.50;99.90;;;;;;4979238;28;19906;-70
2022/07/10 00:35:57;;;;;;;;;;;14.50;99.90;;;;;;4978092;28;20001;-69
2022/07/10 00:38:23;;;;;;;;;;;14.40;99.90;;;;;;4978700;28;19952;-70
2022/07/10 00:40:49;;;;;;;;;;;14.50;99.90;;;;;;4978008;28;20450;-69
2022/07/10 00:43:14;;;;;;;;;;;14.50;99.90;;;;;;4979165;28;19953;-69
2022/07/10 00:45:40;;;;;;;;;;;14.50;99.90;;;;;;4983046;28;20280;-70
2022/07/10 00:48:05;;;;;;;;;;;14.50;99.90;;;;;;4980046;28;20001;-70
2022/07/10 00:50:32;;;;;;;;;;;14.50;99.90;;;;;;4978127;28;19906;-70
2022/07/10 00:52:57;;;;;;;;;;;14.60;99.90;;;;;;4977006;28;19998;-69
2022/07/10 00:55:23;;;;;;;;;;;14.50;99.90;;;;;;4977060;28;19942;-70
2022/07/10 00:57:49;;;;;;;;;;;14.50;99.90;;;;;;4978180;28;19949;-70
2022/07/10 01:00:15;;;;;;;;;;;14.50;99.90;;;;;;4978037;28;20008;-69
2022/07/10 01:02:43;;;;;;;;;;;14.60;99.90;;;;;;4979413;28;19906;-69
2022/07/10 01:05:09;;;;;;;;;;;14.60;99.90;;;;;;4979069;28;20379;-69
2022/07/10 01:07:34;;;;;;;;;;;14.60;99.90;;;;;;4977835;28;19906;-69
2022/07/10 01:10:02;;;;;;;;;;;14.60;99.90;;;;;;4976427;28;19910;-69
2022/07/10 01:12:27;;;;;;;;;;;14.60;99.90;;;;;;4977969;28;19906;-69
2022/07/10 01:14:53;;;;;;;;;;;14.50;99.90;;;;;;4978238;28;20342;-70
2022/07/10 01:17:19;;;;;;;;;;;14.60;99.90;;;;;;4977653;28;19949;-70
2022/07/10 01:19:44;;;;;;;;;;;14.60;99.90;;;;;;4977835;28;20366;-69
2022/07/10 01:22:10;;;;;;;;;;;14.50;99.90;;;;;;4977436;28;19910;-69
2022/07/10 01:24:36;;;;;;;;;;;14.50;99.90;;;;;;4977551;28;19906;-69
2022/07/10 01:27:02;;;;;;;;;;;14.50;99.90;;;;;;4977751;28;19914;-70
2022/07/10 01:29:28;;;;;;;;;;;14.40;99.90;;;;;;4977472;28;19932;-70
2022/07/10 01:31:54;;;;;;;;;;;14.40;99.90;;;;;;4977266;28;19964;-69
2022/07/10 01:34:19;;;;;;;;;;;14.40;99.90;;;;;;4977372;28;19906;-70
2022/07/10 01:36:45;;;;;;;;;;;14.40;99.90;;;;;;4977327;28;19913;-70
2022/07/10 01:39:10;;;;;;;;;;;14.40;99.90;;;;;;4977408;28;19910;-70
2022/07/10 01:41:36;;;;;;;;;;;14.30;99.90;;;;;;4975976;28;19914;-70
2022/07/10 01:44:01;;;;;;;;;;;14.30;99.90;;;;;;4976953;28;19906;-70
2022/07/10 01:46:27;;;;;;;;;;;14.30;99.90;;;;;;4977248;28;19945;-70
2022/07/10 01:48:53;;;;;;;;;;;14.30;99.90;;;;;;4977485;28;20379;-70
2022/07/10 01:51:19;;;;;;;;;;;14.30;99.90;;;;;;4976246;28;19906;-70
2022/07/10 01:53:44;;;;;;;;;;;14.30;99.90;;;;;;4976295;28;19913;-69
2022/07/10 01:56:11;;;;;;;;;;;14.30;99.90;;;;;;4978255;28;19917;-70
2022/07/10 01:58:37;;;;;;;;;;;14.30;99.90;;;;;;4977427;28;20375;-70
2022/07/10 02:01:03;;;;;;;;;;;14.30;99.90;;;;;;4977739;28;20019;-70
2022/07/10 02:06:13;;;;;;;;;;;14.30;99.90;;;;;;4977170;28;19914;-71
2022/07/10 02:08:39;;;;;;;;;;;14.20;99.90;;;;;;4977088;28;19910;-70
2022/07/10 02:11:04;;;;;;;;;;;14.30;99.90;;;;;;4979474;28;19910;-70
2022/07/10 02:13:30;;;;;;;;;;;14.20;99.90;;;;;;4982138;28;20102;-70
2022/07/10 02:15:55;;;;;;;;;;;14.20;99.90;;;;;;4978266;28;19996;-70
2022/07/10 02:18:21;;;;;;;;;;;14.20;99.90;;;;;;4976925;28;20335;-70
2022/07/10 02:20:47;;;;;;;;;;;14.20;99.90;;;;;;4976563;28;19937;-70
2022/07/10 02:23:13;;;;;;;;;;;14.30;99.90;;;;;;4976689;28;19906;-70
2022/07/10 02:25:38;;;;;;;;;;;14.30;99.90;;;;;;4976672;28;19906;-71
2022/07/10 02:28:04;;;;;;;;;;;14.20;99.90;;;;;;4976424;28;20344;-71
2022/07/10 02:30:29;;;;;;;;;;;14.20;99.90;;;;;;4976469;28;19906;-70
2022/07/10 02:32:55;;;;;;;;;;;14.20;99.90;;;;;;4976248;28;19953;-69
2022/07/10 02:35:21;;;;;;;;;;;14.20;99.90;;;;;;4976472;28;20291;-71
2022/07/10 02:37:46;;;;;;;;;;;14.10;99.90;;;;;;4976372;28;19906;-70
2022/07/10 02:40:12;;;;;;;;;;;14.10;99.90;;;;;;4976584;28;19918;-71
2022/07/10 02:42:37;;;;;;;;;;;14.10;99.90;;;;;;4976653;28;19910;-71
2022/07/10 02:45:03;;;;;;;;;;;14.00;99.90;;;;;;4976950;28;20265;-71
2022/07/10 02:47:28;;;;;;;;;;;14.00;99.90;;;;;;4976309;28;19945;-71
2022/07/10 02:49:54;;;;;;;;;;;14.00;99.90;;;;;;4976735;28;19906;-70
2022/07/10 02:52:20;;;;;;;;;;;14.00;99.90;;;;;;4974945;28;19910;-69
2022/07/10 02:54:45;;;;;;;;;;;14.00;99.90;;;;;;4977685;28;19913;-69
2022/07/10 02:57:11;;;;;;;;;;;14.00;99.90;;;;;;4979204;28;19913;-69
2022/07/10 02:59:36;;;;;;;;;;;14.00;99.90;;;;;;4976415;28;19938;-69
2022/07/10 03:02:02;;;;;;;;;;;14.00;99.90;;;;;;4977715;28;20437;-70
2022/07/10 03:04:27;;;;;;;;;;;14.00;99.90;;;;;;4977881;28;19906;-70
2022/07/10 03:06:53;;;;;;;;;;;14.00;99.90;;;;;;4976106;28;19956;-70
2022/07/10 03:09:18;;;;;;;;;;;14.00;99.90;;;;;;4976307;28;19971;-69
2022/07/10 03:11:44;;;;;;;;;;;13.90;99.90;;;;;;4976023;28;19952;-70
2022/07/10 03:14:09;;;;;;;;;;;13.90;99.90;;;;;;4976339;28;19913;-70
2022/07/10 03:16:35;;;;;;;;;;;13.90;99.90;;;;;;4976479;28;19997;-70
2022/07/10 03:19:00;;;;;;;;;;;13.90;99.90;;;;;;4976695;28;19932;-70
2022/07/10 03:21:26;;;;;;;;;;;13.90;99.90;;;;;;4976752;28;19950;-70
2022/07/10 03:23:51;;;;;;;;;;;13.90;99.90;;;;;;4976012;28;19973;-70
2022/07/10 03:26:17;;;;;;;;;;;13.80;99.90;;;;;;4975838;28;19946;-70
2022/07/10 03:28:42;;;;;;;;;;;13.90;99.90;;;;;;4976013;28;19906;-70
2022/07/10 03:31:08;;;;;;;;;;;13.90;99.90;;;;;;4975484;28;19912;-70
2022/07/10 03:33:33;;;;;;;;;;;13.80;99.90;;;;;;4975576;28;19906;-70
2022/07/10 03:36:01;;;;;;;;;;;13.80;99.90;;;;;;4974349;28;19913;-70
2022/07/10 03:38:27;;;;;;;;;;;13.70;99.90;;;;;;4975586;28;19948;-70
2022/07/10 03:40:52;;;;;;;;;;;13.70;99.90;;;;;;5004270;22;20311;-55
2022/07/10 03:43:18;;;;;;;;;;;13.70;99.90;;;;;;5034312;28;19913;-59
2022/07/10 03:45:43;;;;;;;;;;;13.70;99.90;;;;;;5033578;28;19909;-57
2022/07/10 03:48:09;;;;;;;;;;;13.70;99.90;;;;;;5033589;28;20278;-57
2022/07/10 03:50:34;;;;;;;;;;;13.70;99.90;;;;;;5033721;28;19909;-56
2022/07/10 03:53:00;;;;;;;;;;;13.60;99.90;;;;;;5033376;28;19914;-57
2022/07/10 03:55:26;;;;;;;;;;;13.50;99.90;;;;;;5033697;28;20007;-56
2022/07/10 03:57:54;;;;;;;;;;;13.60;99.90;;;;;;5033729;28;19927;-57
2022/07/10 04:00:24;;;;;;;;;;;13.60;99.90;;;;;;5033283;28;20000;-56
2022/07/10 04:03:00;;;;;;;;;;;13.50;99.90;;;;;;5033975;28;20369;-57
2022/07/10 04:05:26;;;;;;;;;;;13.60;99.90;;;;;;5034456;28;19905;-57
2022/07/10 04:07:52;;;;;;;;;;;13.70;99.90;;;;;;5037721;28;20355;-53
2022/07/10 04:10:17;;;;;;;;;;;13.70;99.90;;;;;;5037667;28;19905;-57
2022/07/10 04:12:44;;;;;;;;;;;13.70;99.90;;;;;;5037539;28;19915;-56
2022/07/10 04:15:09;;;;;;;;;;;13.80;99.90;;;;;;5037410;28;19946;-56
2022/07/10 04:17:35;;;;;;;;;;;13.80;99.90;;;;;;5037214;28;19948;-57
2022/07/10 04:20:00;;;;;;;;;;;13.80;99.90;;;;;;5037256;28;20008;-58
2022/07/10 04:22:27;;;;;;;;;;;13.90;99.90;;;;;;5037169;28;19911;-57
2022/07/10 04:24:55;;;;;;;;;;;13.90;99.90;;;;;;5036994;28;19912;-54
2022/07/10 04:27:21;;;;;;;;;;;13.90;99.90;;;;;;5036803;28;19905;-56
2022/07/10 04:29:47;;;;;;;;;;;14.00;99.90;;;;;;5036849;28;19905;-57
2022/07/10 04:32:13;;;;;;;;;;;14.00;99.90;;;;;;5036878;28;20393;-55
2022/07/10 04:34:39;;;;;;;;;;;14.00;99.90;;;;;;5036847;28;20026;-56
2022/07/10 04:37:05;;;;;;;;;;;14.10;99.90;;;;;;5036647;28;19905;-55
2022/07/10 04:39:30;;;;;;;;;;;14.00;99.90;;;;;;5036635;28;20424;-55
2022/07/10 04:41:56;;;;;;;;;;;14.10;99.90;;;;;;5036589;28;19913;-55
2022/07/10 04:44:21;;;;;;;;;;;14.10;99.90;;;;;;5036609;28;19916;-59
2022/07/10 04:46:47;;;;;;;;;;;14.10;99.90;;;;;;5036487;28;19905;-58
2022/07/10 04:49:13;;;;;;;;;;;14.20;99.90;;;;;;5036437;28;20366;-57
2022/07/10 04:51:38;;;;;;;;;;;14.20;99.90;;;;;;5036441;28;19912;-55
2022/07/10 04:54:04;;;;;;;;;;;14.20;99.90;;;;;;5036429;28;19955;-57
2022/07/10 04:56:30;;;;;;;;;;;14.20;99.90;;;;;;5036353;28;19909;-56
2022/07/10 04:58:55;;;;;;;;;;;14.20;99.90;;;;;;5036403;28;19905;-55
2022/07/10 05:01:21;;;;;;;;;;;14.20;99.90;;;;;;5036291;28;19909;-54
2022/07/10 05:03:46;;;;;;;;;;;14.10;99.90;;;;;;5036126;28;19912;-57
2022/07/10 05:06:12;;;;;;;;;;;14.10;99.90;;;;;;5036651;28;19905;-55
2022/07/10 05:08:37;;;;;;;;;;;14.10;99.90;;;;;;5036135;28;19905;-57
2022/07/10 05:11:03;;;;;;;;;;;14.20;99.90;;;;;;5036397;28;19916;-56
2022/07/10 05:13:28;;;;;;;;;;;14.30;99.90;;;;;;5035977;28;19990;-57
2022/07/10 05:15:54;;;;;;;;;;;14.30;99.90;;;;;;5036187;28;20370;-59
2022/07/10 05:18:19;;;;;;;;;;;14.40;99.90;;;;;;5035991;28;20363;-58
2022/07/10 05:20:47;;;;;;;;;;;14.50;99.90;;;;;;5035772;28;19916;-55
2022/07/10 05:23:13;;;;;;;;;;;14.50;99.90;;;;;;5036279;28;19927;-57
2022/07/10 05:25:39;;;;;;;;;;;14.50;99.90;;;;;;5035747;28;20359;-55
2022/07/10 05:28:04;;;;;;;;;;;14.50;99.90;;;;;;5036074;28;19905;-56
2022/07/10 05:30:30;;;;;;;;;;;14.60;99.90;;;;;;5035962;28;19944;-58
2022/07/10 05:32:56;;;;;;;;;;;14.70;99.90;;;;;;5036227;28;20003;-56
2022/07/10 05:35:21;;;;;;;;;;;14.70;99.90;;;;;;5035888;28;20000;-58
2022/07/10 05:37:47;;;;;;;;;;;14.80;99.90;;;;;;5037063;28;19944;-58
2022/07/10 05:40:12;;;;;;;;;;;14.80;99.90;;;;;;5036077;28;19909;-58
2022/07/10 05:42:38;;;;;;;;;;;14.90;99.90;;;;;;5035654;28;20027;-56
2022/07/10 05:45:05;;;;;;;;;;;14.90;99.90;;;;;;5035709;28;19956;-58
2022/07/10 05:47:31;;;;;;;;;;;15.00;99.90;;;;;;5035748;28;19940;-58
2022/07/10 05:49:56;;;;;;;;;;;14.90;99.90;;;;;;5035577;28;20397;-56
2022/07/10 05:52:22;;;;;;;;;;;14.90;99.90;;;;;;5035294;28;19928;-59
2022/07/10 05:54:47;;;;;;;;;;;14.90;99.90;;;;;;5035379;28;19905;-57
2022/07/10 05:57:13;;;;;;;;;;;14.90;99.90;;;;;;5035526;28;19945;-58
2022/07/10 05:59:38;;;;;;;;;;;14.90;99.90;;;;;;5035546;28;20345;-58
2022/07/10 06:02:04;;;;;;;;;;;15.00;99.90;;;;;;5035397;28;19905;-59
2022/07/10 06:04:30;;;;;;;;;;;15.00;99.90;;;;;;5035276;28;20267;-58
2022/07/10 06:06:55;;;;;;;;;;;15.10;99.90;;;;;;5035443;28;19984;-58
2022/07/10 06:09:21;;;;;;;;;;;15.10;99.90;;;;;;5035127;28;20007;-57
2022/07/10 06:11:48;;;;;;;;;;;15.20;99.90;;;;;;5035226;28;20385;-59
2022/07/10 06:14:13;;;;;;;;;;;15.30;99.90;;;;;;5035472;28;19952;-59
2022/07/10 06:16:39;;;;;;;;;;;15.30;99.90;;;;;;5033738;28;19928;-58
2022/07/10 06:19:04;;;;;;;;;;;15.30;99.90;;;;;;5034823;28;20003;-54
2022/07/10 06:21:30;;;;;;;;;;;15.40;99.90;;;;;;5034784;28;19909;-54
2022/07/10 06:23:55;;;;;;;;;;;15.50;99.90;;;;;;5034785;28;20380;-59
2022/07/10 06:26:21;;;;;;;;;;;15.60;99.90;;;;;;5034817;28;19905;-59
2022/07/10 06:28:46;;;;;;;;;;;15.60;99.90;;;;;;5034484;28;19905;-59
2022/07/10 06:31:12;;;;;;;;;;;15.70;99.90;;;;;;5034856;28;19905;-57
2022/07/10 06:33:38;;;;;;;;;;;15.80;99.90;;;;;;5034874;28;19964;-55
2022/07/10 06:36:04;;;;;;;;;;;15.90;99.90;;;;;;5033402;28;20359;-58
2022/07/10 06:38:30;;;;;;;;;;;16.20;99.90;;;;;;5027784;28;19999;-55
2022/07/10 06:40:55;;;;;;;;;;;16.40;99.90;;;;;;5018566;28;20016;-56
2022/07/10 06:43:21;;;;;;;;;;;16.60;99.90;;;;;;5015275;28;20004;-56
2022/07/10 06:45:47;;;;;;;;;;;16.70;99.90;;;;;;5015371;28;19905;-57
2022/07/10 06:48:13;;;;;;;;;;;16.70;99.90;;;;;;5015321;28;20374;-55
2022/07/10 06:50:39;;;;;;;;;;;16.60;99.90;;;;;;5015223;28;20010;-57
2022/07/10 06:53:04;;;;;;;;;;;16.60;99.90;;;;;;5026732;28;19914;-57
2022/07/10 06:55:30;;;;;;;;;;;16.60;99.90;;;;;;5041327;28;19909;-53
2022/07/10 06:57:56;;;;;;;;;;;16.60;99.90;;;;;;5034201;28;19905;-56
2022/07/10 07:00:22;;;;;;;;;;;16.60;99.90;;;;;;5034075;28;19920;-54
2022/07/10 07:02:48;;;;;;;;;;;16.80;99.90;;;;;;5034503;28;19988;-54
2022/07/10 07:05:14;;;;;;;;;;;17.00;99.90;;;;;;5034046;28;20004;-54
2022/07/10 07:07:39;;;;;;;;;;;17.10;99.90;;;;;;5034450;28;19905;-53
2022/07/10 07:10:05;;;;;;;;;;;17.10;99.90;;;;;;5033022;28;19963;-57
2022/07/10 07:12:31;;;;;;;;;;;17.20;99.90;;;;;;5034210;28;19924;-56
2022/07/10 07:14:57;;;;;;;;;;;17.40;99.90;;;;;;5034422;28;20000;-56
2022/07/10 07:17:24;;;;;;;;;;;17.40;99.90;;;;;;5034388;28;19909;-52
2022/07/10 07:25:18;;;;;;;;;;;17.30;99.90;;;;;;5033954;28;19912;-54
2022/07/10 07:27:44;;;;;;;;;;;17.10;99.90;;;;;;5032339;28;19905;-56
2022/07/10 07:30:10;;;;;;;;;;;17.00;99.90;;;;;;5032210;28;19909;-58
2022/07/10 07:32:36;;;;;;;;;;;16.70;99.90;;;;;;5034330;28;19905;-54
2022/07/10 07:35:02;;;;;;;;;;;16.50;99.90;;;;;;5034055;28;19905;-59
2022/07/10 07:37:42;;;;;;;;;;;16.40;99.90;;;;;;5034051;28;19931;-59
2022/07/10 07:40:09;;;;;;;;;;;16.40;99.90;;;;;;5032961;28;19953;-57
2022/07/10 07:42:35;;;;;;;;;;;16.50;99.90;;;;;;5033563;28;19913;-56
2022/07/10 07:45:01;;;;;;;;;;;16.70;99.90;;;;;;5033553;28;20329;-59
2022/07/10 07:47:27;;;;;;;;;;;17.00;99.90;;;;;;5033886;28;20370;-57
2022/07/10 07:49:53;;;;;;;;;;;17.20;99.90;;;;;;5033424;28;19920;-57
2022/07/10 07:52:18;;;;;;;;;;;17.40;99.90;;;;;;5033655;28;19959;-59
2022/07/10 07:54:44;;;;;;;;;;;17.60;99.90;;;;;;5033569;28;19996;-56
2022/07/10 07:57:09;;;;;;;;;;;17.60;99.90;;;;;;5033630;28;19905;-57
2022/07/10 07:59:35;;;;;;;;;;;17.50;99.90;;;;;;5033817;28;19904;-59
2022/07/10 08:02:00;;;;;;;;;;;17.60;99.90;;;;;;5033565;28;19955;-58
2022/07/10 08:04:26;;;;;;;;;;;17.50;99.90;;;;;;5033649;28;20007;-58
2022/07/10 08:06:53;;;;;;;;;;;17.50;99.90;;;;;;5034003;28;19944;-56
2022/07/10 08:09:19;;;;;;;;;;;17.50;99.90;;;;;;5032518;28;19905;-57
2022/07/10 08:11:45;;;;;;;;;;;17.60;99.90;;;;;;5033487;28;19912;-56
2022/07/10 08:14:11;;;;;;;;;;;17.50;99.90;;;;;;5033632;28;19905;-54
2022/07/10 08:16:37;;;;;;;;;;;17.50;99.90;;;;;;5033848;28;20290;-52
2022/07/10 08:19:02;;;;;;;;;;;17.40;99.90;;;;;;5034231;28;19909;-53
2022/07/10 08:21:28;;;;;;;;;;;17.50;99.90;;;;;;5033552;28;20430;-54
2022/07/10 08:23:54;;;;;;;;;;;17.60;99.90;;;;;;5033217;28;19905;-52
2022/07/10 08:26:19;;;;;;;;;;;17.60;99.90;;;;;;5033192;28;20262;-54
2022/07/10 08:28:45;;;;;;;;;;;17.60;99.90;;;;;;5033379;28;19956;-55
2022/07/10 08:31:10;;;;;;;;;;;17.70;99.90;;;;;;5032941;28;19905;-55
2022/07/10 08:33:36;;;;;;;;;;;17.60;99.90;;;;;;5033173;28;20390;-57
2022/07/10 08:36:01;;;;;;;;;;;17.70;99.90;;;;;;5033308;28;19905;-54
2022/07/10 08:38:27;;;;;;;;;;;18.00;99.90;;;;;;5032884;28;19904;-54
2022/07/10 08:40:56;;;;;;;;;;;18.20;99.90;;;;;;5033215;28;19917;-53
2022/07/10 08:43:22;;;;;;;;;;;18.40;99.90;;;;;;5033236;28;20273;-54
2022/07/10 08:45:50;;;;;;;;;;;18.50;99.90;;;;;;5033186;28;20004;-55
2022/07/10 08:48:18;;;;;;;;;;;18.50;99.90;;;;;;5032942;28;20377;-56
2022/07/10 08:50:47;;;;;;;;;;;18.50;99.90;;;;;;5033227;28;20277;-52
2022/07/10 08:53:16;;;;;;;;;;;18.50;99.90;;;;;;5036904;28;20374;-55
2022/07/10 08:55:41;;;;;;;;;;;18.40;99.90;;;;;;5036711;28;19995;-53
2022/07/10 08:58:11;;;;;;;;;;;18.60;99.90;;;;;;5036535;28;19905;-51
2022/07/10 09:00:37;;;;;;;;;;;18.80;99.90;;;;;;5036634;28;19916;-55
2022/07/10 09:03:02;;;;;;;;;;;18.90;99.90;;;;;;5036993;28;19999;-55
2022/07/10 09:05:28;;;;;;;;;;;19.00;99.90;;;;;;5036118;28;19955;-52
2022/07/10 09:07:54;;;;;;;;;;;19.00;99.90;;;;;;5036218;28;19916;-55
2022/07/10 09:10:20;;;;;;;;;;;19.00;99.90;;;;;;5036367;28;20019;-55
2022/07/10 09:12:56;;;;;;;;;;;18.70;99.90;;;;;;5035444;28;19955;-56
2022/07/10 09:15:32;;;;;;;;;;;18.70;99.90;;;;;;5034768;28;19905;-56
2022/07/10 09:17:59;;;;;;;;;;;18.70;99.90;;;;;;5035437;28;20000;-56
2022/07/10 09:20:33;;;;;;;;;;;18.70;99.90;;;;;;5036202;28;19916;-55
2022/07/10 09:22:59;;;;;;;;;;;18.80;99.90;;;;;;5036294;28;19960;-52
2022/07/10 09:25:32;;;;;;;;;;;18.60;99.90;;;;;;5035962;28;19912;-53
2022/07/10 09:27:59;;;;;;;;;;;18.60;99.90;;;;;;5036318;28;19905;-55
2022/07/10 09:30:32;;;;;;;;;;;18.40;99.90;;;;;;5036401;28;20385;-54
2022/07/10 09:33:16;;;;;;;;;;;18.40;99.90;;;;;;5036143;28;20262;-55
2022/07/10 09:36:33;;;;;;;;;;;18.50;99.90;;;;;;5036002;28;19954;-55
2022/07/10 09:38:52;;;;;;;;;;;18.50;99.90;;;;;;5033815;28;19905;-55
2022/07/10 09:41:19;;;;;;;;;;;18.70;99.90;;;;;;5035687;28;20007;-54
2022/07/10 09:46:21;;;;;;;;;;;18.90;99.90;;;;;;5012461;28;19926;-59
2022/07/10 09:48:47;;;;;;;;;;;18.80;99.90;;;;;;5008095;28;19956;-57
2022/07/10 09:51:13;;;;;;;;;;;18.90;99.90;;;;;;4996911;28;19905;-57
2022/07/10 09:53:40;;;;;;;;;;;19.20;99.90;;;;;;4996756;28;19949;-57
2022/07/10 09:56:07;;;;;;;;;;;19.50;99.90;;;;;;4996846;28;20035;-54
2022/07/10 09:58:35;;;;;;;;;;;19.60;99.90;;;;;;4995132;28;20367;-57
2022/07/10 10:01:02;;;;;;;;;;;19.70;99.90;;;;;;4996597;28;19921;-58
2022/07/10 10:03:28;;;;;;;;;;;20.00;99.90;;;;;;4995766;28;20213;-57
2022/07/10 10:05:54;;;;;;;;;;;19.90;99.90;;;;;;4996701;28;20000;-57
2022/07/10 10:08:24;;;;;;;;;;;19.90;99.90;;;;;;4996271;28;19953;-58
2022/07/10 10:10:50;;;;;;;;;;;19.60;99.90;;;;;;4996383;28;20382;-57
2022/07/10 10:13:17;;;;;;;;;;;19.20;99.90;;;;;;4996362;28;19909;-55
2022/07/10 10:15:42;;;;;;;;;;;19.00;99.90;;;;;;4996425;28;19920;-57
2022/07/10 10:18:08;;;;;;;;;;;19.00;99.90;;;;;;4996615;28;19906;-57
2022/07/10 10:20:37;;;;;;;;;;;19.00;99.90;;;;;;4997134;28;20351;-57
2022/07/10 10:23:03;;;;;;;;;;;19.00;99.90;;;;;;4995802;28;19909;-58
2022/07/10 10:25:31;;;;;;;;;;;19.10;99.90;;;;;;4996321;28;19913;-60
2022/07/10 10:27:57;;;;;;;;;;;19.10;99.90;;;;;;4989303;28;20359;-58
2022/07/10 10:30:23;;;;;;;;;;;19.20;99.90;;;;;;4984399;28;19917;-57
2022/07/10 10:32:48;;;;;;;;;;;19.20;99.90;;;;;;4992656;28;19906;-55
2022/07/10 10:35:32;;;;;;;;;;;19.10;99.90;;;;;;4995804;28;20363;-57
2022/07/10 10:37:58;;;;;;;;;;;18.90;99.90;;;;;;4993889;28;20014;-56
2022/07/10 10:40:31;;;;;;;;;;;18.80;99.90;;;;;;4989361;28;20379;-56
2022/07/10 10:42:58;;;;;;;;;;;18.80;99.90;;;;;;4995147;28;19909;-56
2022/07/10 10:45:29;;;;;;;;;;;18.90;99.90;;;;;;4995851;28;19914;-57
2022/07/10 10:48:01;;;;;;;;;;;18.90;99.90;;;;;;4985945;28;19910;-57
2022/07/10 10:50:39;;;;;;;;;;;19.00;99.90;;;;;;4991062;28;20300;-57
2022/07/10 10:53:12;;;;;;;;;;;19.20;99.90;;;;;;4995323;28;19941;-58
2022/07/10 10:55:37;;;;;;;;;;;19.20;99.90;;;;;;4995085;28;20359;-57
2022/07/10 10:58:20;;;;;;;;;;;19.20;99.90;;;;;;4996415;28;19913;-57
2022/07/10 11:00:47;;;;;;;;;;;19.20;99.90;;;;;;4996255;28;19964;-57
2022/07/10 11:03:13;;;;;;;;;;;19.20;99.90;;;;;;4995362;28;19999;-56
2022/07/10 11:05:41;;;;;;;;;;;19.20;99.90;;;;;;4995893;28;19913;-57
2022/07/10 11:08:07;;;;;;;;;;;19.20;99.90;;;;;;4996343;28;20367;-56
2022/07/10 11:10:35;;;;;;;;;;;19.00;99.90;;;;;;4995410;28;19963;-57
2022/07/10 11:13:03;;;;;;;;;;;19.00;99.90;;;;;;4986486;28;19910;-52
2022/07/10 11:15:30;;;;;;;;;;;19.00;99.90;;;;;;4975927;28;20265;-56
2022/07/10 11:17:59;;;;;;;;;;;19.10;99.90;;;;;;4976356;28;19917;-58
2022/07/10 11:20:24;;;;;;;;;;;19.20;99.90;;;;;;4976129;28;19910;-58
2022/07/10 11:23:17;;;;;;;;;;;19.20;99.90;;;;;;4976400;28;19929;-58
2022/07/10 11:26:00;;;;;;;;;;;19.20;99.90;;;;;;4967720;28;19973;-57
2022/07/10 11:28:28;;;;;;;;;;;19.20;99.90;;;;;;4995484;28;20298;-57
2022/07/10 11:30:54;;;;;;;;;;;19.30;99.90;;;;;;4995614;28;20270;-57
2022/07/10 11:33:21;;;;;;;;;;;19.30;99.90;;;;;;4995016;28;19910;-56
2022/07/10 11:35:47;;;;;;;;;;;19.00;99.90;;;;;;4995024;28;20302;-54
2022/07/10 11:38:18;;;;;;;;;;;18.80;99.90;;;;;;4995329;28;19937;-57
2022/07/10 11:40:44;;;;;;;;;;;18.60;99.90;;;;;;4995498;28;19909;-54
2022/07/10 11:43:13;;;;;;;;;;;18.50;99.90;;;;;;4996493;28;20263;-58
2022/07/10 11:45:39;;;;;;;;;;;18.30;99.90;;;;;;4995123;28;19913;-53
2022/07/10 11:48:07;;;;;;;;;;;18.30;99.90;;;;;;4995111;28;19949;-54
2022/07/10 11:50:36;;;;;;;;;;;18.20;99.90;;;;;;4990855;28;19910;-53
2022/07/10 11:53:02;;;;;;;;;;;18.20;99.90;;;;;;4989444;28;19910;-55
2022/07/10 11:55:29;;;;;;;;;;;18.10;99.90;;;;;;4994828;28;19929;-55
2022/07/10 11:57:54;;;;;;;;;;;18.40;99.90;;;;;;4992809;28;19917;-56
2022/07/10 12:00:23;;;;;;;;;;;18.50;99.90;;;;;;4994471;28;19910;-56
2022/07/10 12:02:49;;;;;;;;;;;18.60;99.90;;;;;;4994893;28;19960;-57
2022/07/10 12:05:34;;;;;;;;;;;18.50;99.90;;;;;;4993062;28;20421;-58
2022/07/10 12:08:00;;;;;;;;;;;18.50;99.90;;;;;;4988021;28;19965;-57
2022/07/10 12:10:29;;;;;;;;;;;18.40;99.90;;;;;;4990148;28;19906;-58
2022/07/10 12:13:11;;;;;;;;;;;18.30;99.90;;;;;;4994555;28;19905;-59
2022/07/10 12:15:39;;;;;;;;;;;18.30;99.90;;;;;;4994070;28;19944;-59
2022/07/10 12:18:06;;;;;;;;;;;18.10;99.90;;;;;;4994731;28;19916;-59
2022/07/10 12:20:32;;;;;;;;;;;18.10;99.90;;;;;;4993436;28;19932;-58
2022/07/10 12:22:58;;;;;;;;;;;18.00;99.90;;;;;;4994428;28;20307;-59
2022/07/10 12:25:24;;;;;;;;;;;18.00;99.90;;;;;;4994654;28;20012;-58
2022/07/10 12:27:54;;;;;;;;;;;18.00;99.90;;;;;;4997035;28;19909;-57
2022/07/10 12:30:20;;;;;;;;;;;18.10;99.90;;;;;;4998231;28;19905;-57
2022/07/10 12:32:46;;;;;;;;;;;18.20;99.90;;;;;;4995270;28;20298;-59
2022/07/10 12:35:14;;;;;;;;;;;18.30;99.90;;;;;;4997367;28;19910;-54
2022/07/10 12:37:47;;;;;;;;;;;18.30;99.90;;;;;;4996617;28;19906;-56
2022/07/10 12:40:29;;;;;;;;;;;18.40;99.90;;;;;;4997003;28;19910;-56
2022/07/10 12:43:00;;;;;;;;;;;18.40;99.90;;;;;;4997720;28;19988;-54
2022/07/10 12:45:26;;;;;;;;;;;18.40;99.90;;;;;;4996921;28;19924;-57
2022/07/10 12:47:52;;;;;;;;;;;18.40;99.90;;;;;;4997062;28;19910;-56
2022/07/10 12:50:18;;;;;;;;;;;18.30;99.90;;;;;;4997823;28;19912;-58
2022/07/10 12:52:43;;;;;;;;;;;18.30;99.90;;;;;;4997533;28;19936;-61
2022/07/10 12:55:19;;;;;;;;;;;18.20;99.90;;;;;;4996214;28;19917;-58
2022/07/10 12:57:44;;;;;;;;;;;18.10;99.90;;;;;;4995074;28;20334;-57
2022/07/10 13:00:13;;;;;;;;;;;17.90;99.90;;;;;;4997055;28;19914;-58
2022/07/10 13:02:38;;;;;;;;;;;17.90;99.90;;;;;;4996410;28;19948;-60
2022/07/10 13:05:04;;;;;;;;;;;17.70;99.90;;;;;;4994761;28;19941;-59
2022/07/10 13:07:34;;;;;;;;;;;17.70;99.90;;;;;;4995328;28;19910;-57
2022/07/10 13:10:03;;;;;;;;;;;17.80;99.90;;;;;;4988397;28;19912;-58
2022/07/10 13:12:29;;;;;;;;;;;17.90;99.90;;;;;;4989775;28;19945;-55
2022/07/10 13:14:55;;;;;;;;;;;18.00;99.90;;;;;;4997507;28;19963;-58
2022/07/10 13:17:20;;;;;;;;;;;18.10;99.90;;;;;;4996955;28;19952;-57
2022/07/10 13:19:46;;;;;;;;;;;18.20;99.90;;;;;;4997172;28;19956;-59
2022/07/10 13:22:12;;;;;;;;;;;18.30;99.90;;;;;;4994665;28;19921;-57
2022/07/10 13:24:37;;;;;;;;;;;18.40;99.90;;;;;;4996855;28;19906;-57
2022/07/10 13:27:03;;;;;;;;;;;18.50;99.90;;;;;;4996096;28;19910;-58
2022/07/10 13:29:29;;;;;;;;;;;18.60;99.90;;;;;;4996393;28;20389;-55
2022/07/10 13:31:54;;;;;;;;;;;18.70;99.90;;;;;;4978533;28;20008;-56
2022/07/10 13:34:20;;;;;;;;;;;18.80;99.90;;;;;;4996076;28;20316;-57
2022/07/10 13:36:45;;;;;;;;;;;18.70;99.90;;;;;;4996887;28;19910;-56
2022/07/10 13:39:11;;;;;;;;;;;18.80;99.90;;;;;;4994854;28;19910;-57
2022/07/10 13:41:36;;;;;;;;;;;18.80;99.90;;;;;;4993856;28;19914;-57
2022/07/10 13:44:02;;;;;;;;;;;18.80;99.90;;;;;;4996772;28;20003;-58
2022/07/10 13:46:27;;;;;;;;;;;18.90;99.90;;;;;;4995862;28;19913;-59
2022/07/10 13:48:53;;;;;;;;;;;19.00;99.90;;;;;;4990288;28;19910;-58
2022/07/10 13:51:19;;;;;;;;;;;19.00;99.90;;;;;;4985860;28;20408;-57
2022/07/10 13:53:45;;;;;;;;;;;18.90;99.90;;;;;;4983580;28;19993;-58
2022/07/10 13:56:11;;;;;;;;;;;18.80;99.90;;;;;;4986116;28;19945;-57
2022/07/10 13:58:37;;;;;;;;;;;18.60;99.90;;;;;;4985598;28;20352;-58
2022/07/10 14:01:03;;;;;;;;;;;18.60;99.90;;;;;;4985372;28;19909;-59
2022/07/10 14:03:30;;;;;;;;;;;18.50;99.90;;;;;;4986724;28;19909;-58
2022/07/10 14:05:56;;;;;;;;;;;18.40;99.90;;;;;;4992891;28;19935;-58
2022/07/10 14:08:22;;;;;;;;;;;18.40;99.90;;;;;;4991330;28;20008;-57
2022/07/10 14:10:47;;;;;;;;;;;18.40;99.90;;;;;;4990732;28;19906;-57
2022/07/10 14:13:13;;;;;;;;;;;18.40;99.90;;;;;;4992398;28;19917;-58
2022/07/10 14:15:40;;;;;;;;;;;18.30;99.90;;;;;;4988329;28;19913;-57
2022/07/10 14:18:05;;;;;;;;;;;18.30;99.90;;;;;;4986143;28;19909;-57
2022/07/10 14:21:02;;;;;;;;;;;18.30;99.90;;;;;;4986411;28;19909;-55
2022/07/10 14:23:20;;;;;;;;;;;18.30;99.90;;;;;;4985683;28;19906;-57
2022/07/10 14:25:45;;;;;;;;;;;18.40;99.90;;;;;;4997715;28;19916;-58